Aeroporto :
LOGIN :

Iscrizione | Disclaimer

   EN    FR    IT 

 










Sommario :    VFR   VFR Marginale   IFR   IFR Intensivo   IFR Molto Intensivo
Visibilità : 
Base nubi : 
>= 8 km
>= 3000ft
5 / 8 km
1000 / 3000 ft
1500m / 5 km
500 / 1000 ft
800 / 1500m
200 / 500 ft
< 800m
< 200 ft
Simboli :   Temporali  Nebbia  Neve Forte  Precipitazioni Forti  Vento > 20 kt
SIGMETs :   Varie  Temporali  Ghiacco  Turbolenza  Onda orograficha  Ceneri Vulcaniche







- Altitudine del aeroporto : 1895 ft


LSMM - Meiringen

ULTIMO METAR :
  • 200950Z 23005KT 200V260 9999 RA SCT028 BKN059 OVC083 16/15 Q1017 RMK BLU

METARs OBSOLETI :
  • 200920Z 26009KT 240V320 9999 -RA FEW033 SCT051 OVC063 16/15 Q1017 RMK BLU
  • 200850Z 26009KT 9999 FEW015 SCT060 BKN075 17/14 Q1016 RMK BLU
  • 200820Z VRB01KT 9999 SCT083 BKN120 19/14 Q1016 RMK BLU
  • 200750Z 00000KT 9999 SCT077 OVC090 18/13 Q1016 RMK BLU
  • 200720Z 00000KT 9999 FEW059 BKN074 18/13 Q1016 RMK BLU
  • 200650Z VRB02KT 9999 FEW059 17/13 Q1016 RMK BLU+

Previsioni scadute.
Nessun NOTAM noto per questo aeroporto.



MetMap, La meteo Aeronautica in un colpo d'occhio ! - Copyright ORBIFLY Dicembre 2007 - Disclaimer

ORBIFLY MET'MAP TEAM :

Programmazione e sviluppo : Alexandra Zaïnal
Concezione e sviluppo : Baudouin d'Aumeries
Co-Programmazione e sviluppo : Marc-Olivier Méhu
Supporto tecnico e logistico : Manuel Goepfert
Aiuto per la traduzione : Arnaldo La Scala

Contatto : metmap@orbifly.com




FONTI E CREDITI :

   NOAA